sensor_id;sensor_type;location;lat;lon;timestamp;P1;durP1;ratioP1;P2;durP2;ratioP2
31596;SDS011;18201;50.978;7.034;2023-04-15T00:00:06;13.63;;;7.88;;
31596;SDS011;18201;50.978;7.034;2023-04-15T00:00:39;11.48;;;7.45;;
31596;SDS011;18201;50.978;7.034;2023-04-15T00:01:10;11.55;;;7.10;;
31596;SDS011;18201;50.978;7.034;2023-04-15T00:01:42;13.32;;;6.95;;
31596;SDS011;18201;50.978;7.034;2023-04-15T00:02:14;11.57;;;6.85;;
31596;SDS011;18201;50.978;7.034;2023-04-15T00:02:45;11.32;;;6.15;;
31596;SDS011;18201;50.978;7.034;2023-04-15T00:03:18;12.20;;;6.70;;
31596;SDS011;18201;50.978;7.034;2023-04-15T00:03:50;10.45;;;6.15;;
31596;SDS011;18201;50.978;7.034;2023-04-15T00:04:23;11.73;;;5.97;;
31596;SDS011;18201;50.978;7.034;2023-04-15T00:04:55;9.95;;;6.38;;
31596;SDS011;18201;50.978;7.034;2023-04-15T00:05:26;11.23;;;6.45;;
31596;SDS011;18201;50.978;7.034;2023-04-15T00:05:56;9.95;;;6.05;;
31596;SDS011;18201;50.978;7.034;2023-04-15T00:06:28;12.80;;;6.30;;
31596;SDS011;18201;50.978;7.034;2023-04-15T00:07:00;9.82;;;6.38;;
31596;SDS011;18201;50.978;7.034;2023-04-15T00:07:32;7.78;;;5.60;;
31596;SDS011;18201;50.978;7.034;2023-04-15T00:08:05;10.65;;;5.80;;
31596;SDS011;18201;50.978;7.034;2023-04-15T00:08:37;13.63;;;6.57;;
31596;SDS011;18201;50.978;7.034;2023-04-15T00:09:08;12.02;;;6.00;;
31596;SDS011;18201;50.978;7.034;2023-04-15T00:09:40;10.93;;;6.30;;
31596;SDS011;18201;50.978;7.034;2023-04-15T00:10:11;10.55;;;6.25;;
31596;SDS011;18201;50.978;7.034;2023-04-15T00:10:43;13.32;;;6.30;;
31596;SDS011;18201;50.978;7.034;2023-04-15T00:11:15;10.65;;;5.72;;
31596;SDS011;18201;50.978;7.034;2023-04-15T00:11:47;10.55;;;6.32;;
31596;SDS011;18201;50.978;7.034;2023-04-15T00:12:19;10.43;;;5.65;;
31596;SDS011;18201;50.978;7.034;2023-04-15T00:12:52;7.47;;;5.38;;
31596;SDS011;18201;50.978;7.034;2023-04-15T00:13:23;7.82;;;5.25;;
31596;SDS011;18201;50.978;7.034;2023-04-15T00:13:54;10.65;;;5.85;;
31596;SDS011;18201;50.978;7.034;2023-04-15T00:14:25;8.93;;;5.60;;
31596;SDS011;18201;50.978;7.034;2023-04-15T00:14:57;11.05;;;5.97;;
31596;SDS011;18201;50.978;7.034;2023-04-15T00:15:28;11.98;;;5.50;;
31596;SDS011;18201;50.978;7.034;2023-04-15T00:15:59;7.55;;;4.82;;
31596;SDS011;18201;50.978;7.034;2023-04-15T00:16:31;7.90;;;5.25;;
31596;SDS011;18201;50.978;7.034;2023-04-15T00:17:02;8.38;;;5.28;;
31596;SDS011;18201;50.978;7.034;2023-04-15T00:17:34;11.38;;;5.68;;
31596;SDS011;18201;50.978;7.034;2023-04-15T00:18:07;13.93;;;5.75;;
31596;SDS011;18201;50.978;7.034;2023-04-15T00:18:38;7.82;;;5.20;;
31596;SDS011;18201;50.978;7.034;2023-04-15T00:19:10;10.15;;;5.80;;
31596;SDS011;18201;50.978;7.034;2023-04-15T00:19:41;12.15;;;5.63;;
31596;SDS011;18201;50.978;7.034;2023-04-15T00:20:13;10.65;;;6.15;;
31596;SDS011;18201;50.978;7.034;2023-04-15T00:20:45;8.50;;;5.70;;
31596;SDS011;18201;50.978;7.034;2023-04-15T00:21:16;9.18;;;5.82;;
31596;SDS011;18201;50.978;7.034;2023-04-15T00:21:47;10.07;;;5.70;;
31596;SDS011;18201;50.978;7.034;2023-04-15T00:22:18;9.20;;;5.95;;
31596;SDS011;18201;50.978;7.034;2023-04-15T00:22:49;11.45;;;6.05;;
31596;SDS011;18201;50.978;7.034;2023-04-15T00:23:21;13.63;;;6.15;;
31596;SDS011;18201;50.978;7.034;2023-04-15T00:23:53;7.57;;;5.22;;
31596;SDS011;18201;50.978;7.034;2023-04-15T00:24:24;8.50;;;5.30;;
31596;SDS011;18201;50.978;7.034;2023-04-15T00:24:55;11.68;;;4.85;;
31596;SDS011;18201;50.978;7.034;2023-04-15T00:25:27;12.65;;;5.65;;
31596;SDS011;18201;50.978;7.034;2023-04-15T00:25:58;8.10;;;4.70;;
31596;SDS011;18201;50.978;7.034;2023-04-15T00:26:29;9.52;;;5.68;;
31596;SDS011;18201;50.978;7.034;2023-04-15T00:27:01;9.27;;;4.63;;
31596;SDS011;18201;50.978;7.034;2023-04-15T00:27:32;18.30;;;6.00;;
31596;SDS011;18201;50.978;7.034;2023-04-15T00:28:03;7.25;;;5.00;;
31596;SDS011;18201;50.978;7.034;2023-04-15T00:28:35;7.43;;;4.90;;
31596;SDS011;18201;50.978;7.034;2023-04-15T00:29:06;9.52;;;5.25;;
31596;SDS011;18201;50.978;7.034;2023-04-15T00:29:37;8.07;;;5.38;;
31596;SDS011;18201;50.978;7.034;2023-04-15T00:30:09;12.35;;;5.28;;
31596;SDS011;18201;50.978;7.034;2023-04-15T00:30:43;9.05;;;4.93;;
31596;SDS011;18201;50.978;7.034;2023-04-15T00:31:14;8.98;;;4.82;;
31596;SDS011;18201;50.978;7.034;2023-04-15T00:31:46;8.38;;;4.80;;
31596;SDS011;18201;50.978;7.034;2023-04-15T00:32:17;6.93;;;4.55;;
31596;SDS011;18201;50.978;7.034;2023-04-15T00:32:49;11.30;;;4.93;;
31596;SDS011;18201;50.978;7.034;2023-04-15T00:33:21;7.20;;;5.05;;
31596;SDS011;18201;50.978;7.034;2023-04-15T00:33:52;7.93;;;5.18;;
31596;SDS011;18201;50.978;7.034;2023-04-15T00:34:23;6.03;;;4.28;;
31596;SDS011;18201;50.978;7.034;2023-04-15T00:34:55;8.38;;;5.18;;
31596;SDS011;18201;50.978;7.034;2023-04-15T00:35:26;7.45;;;4.57;;
31596;SDS011;18201;50.978;7.034;2023-04-15T00:35:57;8.63;;;4.85;;
31596;SDS011;18201;50.978;7.034;2023-04-15T00:36:29;8.10;;;4.80;;
31596;SDS011;18201;50.978;7.034;2023-04-15T00:37:00;7.88;;;4.63;;
31596;SDS011;18201;50.978;7.034;2023-04-15T00:37:31;6.88;;;4.35;;
31596;SDS011;18201;50.978;7.034;2023-04-15T00:38:04;9.02;;;4.22;;
31596;SDS011;18201;50.978;7.034;2023-04-15T00:38:38;7.35;;;4.97;;
31596;SDS011;18201;50.978;7.034;2023-04-15T00:39:09;7.88;;;5.20;;
31596;SDS011;18201;50.978;7.034;2023-04-15T00:39:41;6.78;;;4.70;;
31596;SDS011;18201;50.978;7.034;2023-04-15T00:40:12;7.93;;;4.65;;
31596;SDS011;18201;50.978;7.034;2023-04-15T00:40:43;8.95;;;5.25;;
31596;SDS011;18201;50.978;7.034;2023-04-15T00:41:15;9.65;;;5.47;;
31596;SDS011;18201;50.978;7.034;2023-04-15T00:41:46;13.60;;;5.68;;
31596;SDS011;18201;50.978;7.034;2023-04-15T00:42:18;6.88;;;4.88;;
31596;SDS011;18201;50.978;7.034;2023-04-15T00:42:50;13.45;;;5.57;;
31596;SDS011;18201;50.978;7.034;2023-04-15T00:43:21;8.73;;;5.53;;
31596;SDS011;18201;50.978;7.034;2023-04-15T00:43:52;10.63;;;5.38;;
31596;SDS011;18201;50.978;7.034;2023-04-15T00:44:24;10.10;;;5.40;;
31596;SDS011;18201;50.978;7.034;2023-04-15T00:44:55;9.25;;;5.25;;
31596;SDS011;18201;50.978;7.034;2023-04-15T00:45:26;9.75;;;6.03;;
31596;SDS011;18201;50.978;7.034;2023-04-15T00:46:00;7.70;;;5.60;;
31596;SDS011;18201;50.978;7.034;2023-04-15T00:46:34;10.85;;;5.53;;
31596;SDS011;18201;50.978;7.034;2023-04-15T00:47:09;11.15;;;6.00;;
31596;SDS011;18201;50.978;7.034;2023-04-15T00:47:42;12.48;;;6.38;;
31596;SDS011;18201;50.978;7.034;2023-04-15T00:48:13;10.85;;;6.35;;
31596;SDS011;18201;50.978;7.034;2023-04-15T00:48:45;11.93;;;5.65;;
31596;SDS011;18201;50.978;7.034;2023-04-15T00:49:17;10.18;;;5.65;;
31596;SDS011;18201;50.978;7.034;2023-04-15T00:49:49;12.15;;;5.72;;
31596;SDS011;18201;50.978;7.034;2023-04-15T00:50:20;13.07;;;6.20;;
31596;SDS011;18201;50.978;7.034;2023-04-15T00:51:00;11.93;;;5.88;;
31596;SDS011;18201;50.978;7.034;2023-04-15T00:51:31;8.68;;;5.32;;
31596;SDS011;18201;50.978;7.034;2023-04-15T00:52:02;9.15;;;5.38;;
31596;SDS011;18201;50.978;7.034;2023-04-15T00:52:34;6.68;;;5.35;;
31596;SDS011;18201;50.978;7.034;2023-04-15T00:53:07;14.40;;;5.72;;
31596;SDS011;18201;50.978;7.034;2023-04-15T00:53:39;9.30;;;6.30;;
31596;SDS011;18201;50.978;7.034;2023-04-15T00:54:12;10.45;;;6.10;;
31596;SDS011;18201;50.978;7.034;2023-04-15T00:54:43;10.27;;;6.03;;
31596;SDS011;18201;50.978;7.034;2023-04-15T00:55:17;9.13;;;6.03;;
31596;SDS011;18201;50.978;7.034;2023-04-15T00:55:49;9.13;;;5.90;;
31596;SDS011;18201;50.978;7.034;2023-04-15T00:56:20;9.60;;;6.22;;
31596;SDS011;18201;50.978;7.034;2023-04-15T00:56:53;9.57;;;5.93;;
31596;SDS011;18201;50.978;7.034;2023-04-15T00:57:25;8.73;;;5.55;;
31596;SDS011;18201;50.978;7.034;2023-04-15T00:57:58;10.90;;;6.78;;
31596;SDS011;18201;50.978;7.034;2023-04-15T00:58:29;10.77;;;6.70;;
31596;SDS011;18201;50.978;7.034;2023-04-15T00:59:01;15.30;;;5.97;;
31596;SDS011;18201;50.978;7.034;2023-04-15T00:59:32;11.23;;;6.68;;
31596;SDS011;18201;50.978;7.034;2023-04-15T01:00:03;8.27;;;6.43;;
31596;SDS011;18201;50.978;7.034;2023-04-15T01:00:38;10.05;;;5.88;;
31596;SDS011;18201;50.978;7.034;2023-04-15T01:01:09;8.60;;;6.50;;
31596;SDS011;18201;50.978;7.034;2023-04-15T01:01:40;9.00;;;6.07;;
31596;SDS011;18201;50.978;7.034;2023-04-15T01:02:14;11.57;;;6.43;;
31596;SDS011;18201;50.978;7.034;2023-04-15T01:02:45;9.02;;;6.43;;
31596;SDS011;18201;50.978;7.034;2023-04-15T01:03:16;9.55;;;6.82;;
31596;SDS011;18201;50.978;7.034;2023-04-15T01:03:48;14.93;;;5.97;;
31596;SDS011;18201;50.978;7.034;2023-04-15T01:04:19;10.50;;;6.15;;
31596;SDS011;18201;50.978;7.034;2023-04-15T01:04:53;11.57;;;6.80;;
31596;SDS011;18201;50.978;7.034;2023-04-15T01:05:26;9.45;;;6.35;;
31596;SDS011;18201;50.978;7.034;2023-04-15T01:05:57;8.65;;;5.85;;
31596;SDS011;18201;50.978;7.034;2023-04-15T01:06:30;14.82;;;6.50;;
31596;SDS011;18201;50.978;7.034;2023-04-15T01:07:02;10.65;;;5.95;;
31596;SDS011;18201;50.978;7.034;2023-04-15T01:07:34;12.00;;;6.60;;
31596;SDS011;18201;50.978;7.034;2023-04-15T01:08:05;11.55;;;6.03;;
31596;SDS011;18201;50.978;7.034;2023-04-15T01:08:37;9.35;;;5.70;;
31596;SDS011;18201;50.978;7.034;2023-04-15T01:09:09;10.20;;;5.57;;
31596;SDS011;18201;50.978;7.034;2023-04-15T01:09:41;9.32;;;5.93;;
31596;SDS011;18201;50.978;7.034;2023-04-15T01:10:13;9.98;;;6.25;;
31596;SDS011;18201;50.978;7.034;2023-04-15T01:10:44;8.63;;;6.38;;
31596;SDS011;18201;50.978;7.034;2023-04-15T01:11:15;9.75;;;6.38;;
31596;SDS011;18201;50.978;7.034;2023-04-15T01:11:48;9.68;;;5.85;;
31596;SDS011;18201;50.978;7.034;2023-04-15T01:12:20;9.40;;;6.10;;
31596;SDS011;18201;50.978;7.034;2023-04-15T01:12:50;9.77;;;6.03;;
31596;SDS011;18201;50.978;7.034;2023-04-15T01:13:22;8.30;;;6.25;;
31596;SDS011;18201;50.978;7.034;2023-04-15T01:13:54;10.30;;;5.45;;
31596;SDS011;18201;50.978;7.034;2023-04-15T01:14:26;9.68;;;5.50;;
31596;SDS011;18201;50.978;7.034;2023-04-15T01:14:58;10.27;;;6.63;;
31596;SDS011;18201;50.978;7.034;2023-04-15T01:15:29;9.60;;;6.18;;
31596;SDS011;18201;50.978;7.034;2023-04-15T01:16:00;13.23;;;7.43;;
31596;SDS011;18201;50.978;7.034;2023-04-15T01:16:32;10.50;;;6.28;;
31596;SDS011;18201;50.978;7.034;2023-04-15T01:17:03;9.90;;;6.45;;
31596;SDS011;18201;50.978;7.034;2023-04-15T01:17:34;15.50;;;7.28;;
31596;SDS011;18201;50.978;7.034;2023-04-15T01:18:07;10.90;;;7.30;;
31596;SDS011;18201;50.978;7.034;2023-04-15T01:18:38;9.20;;;6.45;;
31596;SDS011;18201;50.978;7.034;2023-04-15T01:19:10;11.27;;;7.20;;
31596;SDS011;18201;50.978;7.034;2023-04-15T01:19:44;14.07;;;7.15;;
31596;SDS011;18201;50.978;7.034;2023-04-15T01:20:15;13.20;;;7.35;;
31596;SDS011;18201;50.978;7.034;2023-04-15T01:20:46;11.60;;;6.20;;
31596;SDS011;18201;50.978;7.034;2023-04-15T01:21:18;15.20;;;8.02;;
31596;SDS011;18201;50.978;7.034;2023-04-15T01:21:51;11.80;;;6.95;;
31596;SDS011;18201;50.978;7.034;2023-04-15T01:22:22;9.43;;;6.40;;
31596;SDS011;18201;50.978;7.034;2023-04-15T01:22:54;13.43;;;7.45;;
31596;SDS011;18201;50.978;7.034;2023-04-15T01:23:26;11.27;;;6.88;;
31596;SDS011;18201;50.978;7.034;2023-04-15T01:23:58;13.70;;;6.78;;
31596;SDS011;18201;50.978;7.034;2023-04-15T01:24:31;11.30;;;6.38;;
31596;SDS011;18201;50.978;7.034;2023-04-15T01:25:04;14.68;;;6.95;;
31596;SDS011;18201;50.978;7.034;2023-04-15T01:25:43;12.20;;;6.75;;
31596;SDS011;18201;50.978;7.034;2023-04-15T01:26:15;11.77;;;6.82;;
31596;SDS011;18201;50.978;7.034;2023-04-15T01:26:48;12.07;;;6.47;;
31596;SDS011;18201;50.978;7.034;2023-04-15T01:27:19;15.65;;;7.10;;
31596;SDS011;18201;50.978;7.034;2023-04-15T01:27:50;9.93;;;6.20;;
31596;SDS011;18201;50.978;7.034;2023-04-15T01:28:22;11.63;;;7.00;;
31596;SDS011;18201;50.978;7.034;2023-04-15T01:28:54;10.35;;;6.07;;
31596;SDS011;18201;50.978;7.034;2023-04-15T01:29:25;11.27;;;6.22;;
31596;SDS011;18201;50.978;7.034;2023-04-15T01:29:56;12.50;;;6.90;;
31596;SDS011;18201;50.978;7.034;2023-04-15T01:30:27;10.05;;;6.53;;
31596;SDS011;18201;50.978;7.034;2023-04-15T01:31:06;10.23;;;5.97;;
31596;SDS011;18201;50.978;7.034;2023-04-15T01:31:38;10.05;;;6.20;;
31596;SDS011;18201;50.978;7.034;2023-04-15T01:32:09;10.70;;;6.55;;
31596;SDS011;18201;50.978;7.034;2023-04-15T01:32:41;10.88;;;6.50;;
31596;SDS011;18201;50.978;7.034;2023-04-15T01:33:12;11.18;;;7.00;;
31596;SDS011;18201;50.978;7.034;2023-04-15T01:33:43;11.23;;;6.28;;
31596;SDS011;18201;50.978;7.034;2023-04-15T01:34:15;14.25;;;6.47;;
31596;SDS011;18201;50.978;7.034;2023-04-15T01:34:46;11.65;;;6.75;;
31596;SDS011;18201;50.978;7.034;2023-04-15T01:35:16;12.75;;;7.13;;
31596;SDS011;18201;50.978;7.034;2023-04-15T01:35:48;13.57;;;7.60;;
31596;SDS011;18201;50.978;7.034;2023-04-15T01:36:19;15.38;;;8.38;;
31596;SDS011;18201;50.978;7.034;2023-04-15T01:36:50;14.32;;;7.47;;
31596;SDS011;18201;50.978;7.034;2023-04-15T01:37:21;13.18;;;8.23;;
31596;SDS011;18201;50.978;7.034;2023-04-15T01:37:53;16.40;;;7.82;;
31596;SDS011;18201;50.978;7.034;2023-04-15T01:38:28;13.50;;;7.05;;
31596;SDS011;18201;50.978;7.034;2023-04-15T01:39:00;11.35;;;7.15;;
31596;SDS011;18201;50.978;7.034;2023-04-15T01:39:32;11.45;;;7.75;;
31596;SDS011;18201;50.978;7.034;2023-04-15T01:40:03;13.13;;;7.35;;
31596;SDS011;18201;50.978;7.034;2023-04-15T01:40:36;13.35;;;8.07;;
31596;SDS011;18201;50.978;7.034;2023-04-15T01:41:08;11.55;;;7.53;;
31596;SDS011;18201;50.978;7.034;2023-04-15T01:41:40;16.90;;;8.05;;
31596;SDS011;18201;50.978;7.034;2023-04-15T01:42:11;12.18;;;7.55;;
31596;SDS011;18201;50.978;7.034;2023-04-15T01:42:42;10.85;;;6.95;;
31596;SDS011;18201;50.978;7.034;2023-04-15T01:43:14;15.88;;;7.72;;
31596;SDS011;18201;50.978;7.034;2023-04-15T01:43:44;12.75;;;6.90;;
31596;SDS011;18201;50.978;7.034;2023-04-15T01:44:18;11.45;;;6.97;;
31596;SDS011;18201;50.978;7.034;2023-04-15T01:44:50;15.10;;;7.63;;
31596;SDS011;18201;50.978;7.034;2023-04-15T01:45:21;12.55;;;7.82;;
31596;SDS011;18201;50.978;7.034;2023-04-15T01:45:52;13.40;;;7.03;;
31596;SDS011;18201;50.978;7.034;2023-04-15T01:46:23;12.60;;;6.68;;
31596;SDS011;18201;50.978;7.034;2023-04-15T01:46:58;11.40;;;6.95;;
31596;SDS011;18201;50.978;7.034;2023-04-15T01:47:33;13.45;;;6.45;;
31596;SDS011;18201;50.978;7.034;2023-04-15T01:48:05;9.65;;;5.90;;
31596;SDS011;18201;50.978;7.034;2023-04-15T01:48:37;10.05;;;6.60;;
31596;SDS011;18201;50.978;7.034;2023-04-15T01:49:10;15.18;;;6.28;;
31596;SDS011;18201;50.978;7.034;2023-04-15T01:49:40;9.80;;;5.68;;
31596;SDS011;18201;50.978;7.034;2023-04-15T01:50:11;16.05;;;7.03;;
31596;SDS011;18201;50.978;7.034;2023-04-15T01:50:44;13.15;;;5.80;;
31596;SDS011;18201;50.978;7.034;2023-04-15T01:51:15;8.30;;;5.65;;
31596;SDS011;18201;50.978;7.034;2023-04-15T01:51:46;10.48;;;6.38;;
31596;SDS011;18201;50.978;7.034;2023-04-15T01:52:18;15.52;;;7.03;;
31596;SDS011;18201;50.978;7.034;2023-04-15T01:52:49;11.23;;;6.10;;
31596;SDS011;18201;50.978;7.034;2023-04-15T01:53:20;10.38;;;6.03;;
31596;SDS011;18201;50.978;7.034;2023-04-15T01:53:52;11.63;;;6.45;;
31596;SDS011;18201;50.978;7.034;2023-04-15T01:54:25;11.88;;;5.88;;
31596;SDS011;18201;50.978;7.034;2023-04-15T01:54:56;9.63;;;6.57;;
31596;SDS011;18201;50.978;7.034;2023-04-15T01:55:28;7.05;;;6.07;;
31596;SDS011;18201;50.978;7.034;2023-04-15T01:55:59;10.90;;;6.43;;
31596;SDS011;18201;50.978;7.034;2023-04-15T01:56:32;8.20;;;5.88;;
31596;SDS011;18201;50.978;7.034;2023-04-15T01:57:04;10.38;;;6.82;;
31596;SDS011;18201;50.978;7.034;2023-04-15T01:57:35;10.15;;;6.00;;
31596;SDS011;18201;50.978;7.034;2023-04-15T01:58:06;8.77;;;6.53;;
31596;SDS011;18201;50.978;7.034;2023-04-15T01:58:38;11.30;;;6.95;;
31596;SDS011;18201;50.978;7.034;2023-04-15T01:59:09;13.65;;;7.15;;
31596;SDS011;18201;50.978;7.034;2023-04-15T01:59:41;14.70;;;6.30;;
31596;SDS011;18201;50.978;7.034;2023-04-15T02:00:13;9.95;;;6.38;;
31596;SDS011;18201;50.978;7.034;2023-04-15T02:00:46;14.57;;;6.85;;
31596;SDS011;18201;50.978;7.034;2023-04-15T02:01:17;11.15;;;7.22;;
31596;SDS011;18201;50.978;7.034;2023-04-15T02:01:49;10.77;;;6.45;;
31596;SDS011;18201;50.978;7.034;2023-04-15T02:02:21;13.05;;;6.78;;
31596;SDS011;18201;50.978;7.034;2023-04-15T02:02:52;13.52;;;6.90;;
31596;SDS011;18201;50.978;7.034;2023-04-15T02:03:24;11.15;;;6.82;;
31596;SDS011;18201;50.978;7.034;2023-04-15T02:03:55;11.23;;;7.32;;
31596;SDS011;18201;50.978;7.034;2023-04-15T02:04:26;11.40;;;7.32;;
31596;SDS011;18201;50.978;7.034;2023-04-15T02:04:58;12.63;;;7.60;;
31596;SDS011;18201;50.978;7.034;2023-04-15T02:05:30;11.27;;;6.70;;
31596;SDS011;18201;50.978;7.034;2023-04-15T02:06:01;10.82;;;7.28;;
31596;SDS011;18201;50.978;7.034;2023-04-15T02:06:33;9.82;;;7.25;;
31596;SDS011;18201;50.978;7.034;2023-04-15T02:07:05;9.05;;;7.28;;
31596;SDS011;18201;50.978;7.034;2023-04-15T02:07:36;10.23;;;7.78;;
31596;SDS011;18201;50.978;7.034;2023-04-15T02:08:08;13.23;;;7.13;;
31596;SDS011;18201;50.978;7.034;2023-04-15T02:08:39;10.20;;;7.97;;
31596;SDS011;18201;50.978;7.034;2023-04-15T02:09:10;10.43;;;7.13;;
31596;SDS011;18201;50.978;7.034;2023-04-15T02:09:42;14.13;;;6.93;;
31596;SDS011;18201;50.978;7.034;2023-04-15T02:10:15;14.68;;;6.97;;
31596;SDS011;18201;50.978;7.034;2023-04-15T02:10:46;12.45;;;7.45;;
31596;SDS011;18201;50.978;7.034;2023-04-15T02:11:18;10.18;;;6.88;;
31596;SDS011;18201;50.978;7.034;2023-04-15T02:11:50;10.48;;;7.30;;
31596;SDS011;18201;50.978;7.034;2023-04-15T02:12:22;10.55;;;7.63;;
31596;SDS011;18201;50.978;7.034;2023-04-15T02:12:54;12.15;;;7.38;;
31596;SDS011;18201;50.978;7.034;2023-04-15T02:13:25;13.45;;;7.45;;
31596;SDS011;18201;50.978;7.034;2023-04-15T02:13:56;14.18;;;7.45;;
31596;SDS011;18201;50.978;7.034;2023-04-15T02:14:28;12.40;;;7.22;;
31596;SDS011;18201;50.978;7.034;2023-04-15T02:14:59;10.73;;;7.70;;
31596;SDS011;18201;50.978;7.034;2023-04-15T02:15:33;8.98;;;6.75;;
31596;SDS011;18201;50.978;7.034;2023-04-15T02:16:14;15.13;;;7.68;;
31596;SDS011;18201;50.978;7.034;2023-04-15T02:16:45;12.27;;;7.68;;
31596;SDS011;18201;50.978;7.034;2023-04-15T02:17:16;17.42;;;7.43;;
31596;SDS011;18201;50.978;7.034;2023-04-15T02:17:48;14.10;;;7.85;;
31596;SDS011;18201;50.978;7.034;2023-04-15T02:18:21;12.00;;;7.43;;
31596;SDS011;18201;50.978;7.034;2023-04-15T02:18:52;15.75;;;7.90;;
31596;SDS011;18201;50.978;7.034;2023-04-15T02:19:23;13.10;;;8.10;;
31596;SDS011;18201;50.978;7.034;2023-04-15T02:19:55;17.88;;;8.20;;
31596;SDS011;18201;50.978;7.034;2023-04-15T02:20:26;16.13;;;8.18;;
31596;SDS011;18201;50.978;7.034;2023-04-15T02:20:57;11.15;;;7.50;;
31596;SDS011;18201;50.978;7.034;2023-04-15T02:21:28;13.20;;;6.63;;
31596;SDS011;18201;50.978;7.034;2023-04-15T02:21:59;10.77;;;7.68;;
31596;SDS011;18201;50.978;7.034;2023-04-15T02:22:31;15.60;;;8.30;;
31596;SDS011;18201;50.978;7.034;2023-04-15T02:23:03;13.75;;;8.05;;
31596;SDS011;18201;50.978;7.034;2023-04-15T02:23:36;12.32;;;8.23;;
31596;SDS011;18201;50.978;7.034;2023-04-15T02:24:07;12.40;;;8.18;;
31596;SDS011;18201;50.978;7.034;2023-04-15T02:24:39;17.73;;;8.02;;
31596;SDS011;18201;50.978;7.034;2023-04-15T02:25:09;12.98;;;7.93;;
31596;SDS011;18201;50.978;7.034;2023-04-15T02:25:40;13.57;;;8.77;;
31596;SDS011;18201;50.978;7.034;2023-04-15T02:26:11;11.13;;;7.80;;
31596;SDS011;18201;50.978;7.034;2023-04-15T02:26:43;15.18;;;8.57;;
31596;SDS011;18201;50.978;7.034;2023-04-15T02:27:16;12.05;;;8.38;;
31596;SDS011;18201;50.978;7.034;2023-04-15T02:27:47;12.82;;;7.85;;
31596;SDS011;18201;50.978;7.034;2023-04-15T02:28:19;11.63;;;7.70;;
31596;SDS011;18201;50.978;7.034;2023-04-15T02:28:50;9.55;;;7.30;;
31596;SDS011;18201;50.978;7.034;2023-04-15T02:29:21;12.52;;;7.47;;
31596;SDS011;18201;50.978;7.034;2023-04-15T02:29:53;8.65;;;7.45;;
31596;SDS011;18201;50.978;7.034;2023-04-15T02:30:28;11.10;;;8.57;;
31596;SDS011;18201;50.978;7.034;2023-04-15T02:30:59;17.45;;;7.57;;
31596;SDS011;18201;50.978;7.034;2023-04-15T02:31:31;14.00;;;7.93;;
31596;SDS011;18201;50.978;7.034;2023-04-15T02:32:06;13.60;;;7.72;;
31596;SDS011;18201;50.978;7.034;2023-04-15T02:32:37;10.80;;;7.07;;
31596;SDS011;18201;50.978;7.034;2023-04-15T02:33:08;14.55;;;8.40;;
31596;SDS011;18201;50.978;7.034;2023-04-15T02:33:39;10.55;;;8.02;;
31596;SDS011;18201;50.978;7.034;2023-04-15T02:34:10;13.32;;;7.82;;
31596;SDS011;18201;50.978;7.034;2023-04-15T02:34:43;11.70;;;7.60;;
31596;SDS011;18201;50.978;7.034;2023-04-15T02:35:15;16.75;;;8.38;;
31596;SDS011;18201;50.978;7.034;2023-04-15T02:35:48;14.27;;;8.27;;
31596;SDS011;18201;50.978;7.034;2023-04-15T02:36:20;13.45;;;7.53;;
31596;SDS011;18201;50.978;7.034;2023-04-15T02:36:52;11.48;;;7.07;;
31596;SDS011;18201;50.978;7.034;2023-04-15T02:37:26;13.32;;;7.47;;
31596;SDS011;18201;50.978;7.034;2023-04-15T02:37:57;13.38;;;8.45;;
31596;SDS011;18201;50.978;7.034;2023-04-15T02:38:30;14.15;;;7.22;;
31596;SDS011;18201;50.978;7.034;2023-04-15T02:39:01;11.27;;;8.18;;
31596;SDS011;18201;50.978;7.034;2023-04-15T02:39:33;13.60;;;7.40;;
31596;SDS011;18201;50.978;7.034;2023-04-15T02:40:05;10.65;;;7.10;;
31596;SDS011;18201;50.978;7.034;2023-04-15T02:40:37;11.48;;;8.13;;
31596;SDS011;18201;50.978;7.034;2023-04-15T02:41:08;10.65;;;7.88;;
31596;SDS011;18201;50.978;7.034;2023-04-15T02:41:40;13.95;;;8.30;;
31596;SDS011;18201;50.978;7.034;2023-04-15T02:42:12;11.13;;;8.38;;
31596;SDS011;18201;50.978;7.034;2023-04-15T02:42:44;13.52;;;8.45;;
31596;SDS011;18201;50.978;7.034;2023-04-15T02:43:16;13.57;;;8.32;;
31596;SDS011;18201;50.978;7.034;2023-04-15T02:43:47;10.90;;;7.78;;
31596;SDS011;18201;50.978;7.034;2023-04-15T02:44:18;12.20;;;8.75;;
31596;SDS011;18201;50.978;7.034;2023-04-15T02:44:51;13.02;;;8.85;;
31596;SDS011;18201;50.978;7.034;2023-04-15T02:45:23;10.32;;;8.30;;
31596;SDS011;18201;50.978;7.034;2023-04-15T02:45:56;12.00;;;8.00;;
31596;SDS011;18201;50.978;7.034;2023-04-15T02:46:28;14.60;;;8.88;;
31596;SDS011;18201;50.978;7.034;2023-04-15T02:46:59;12.35;;;8.23;;
31596;SDS011;18201;50.978;7.034;2023-04-15T02:47:30;14.32;;;8.05;;
31596;SDS011;18201;50.978;7.034;2023-04-15T02:48:02;13.20;;;8.60;;
31596;SDS011;18201;50.978;7.034;2023-04-15T02:48:35;13.43;;;8.40;;
31596;SDS011;18201;50.978;7.034;2023-04-15T02:49:06;16.70;;;8.40;;
31596;SDS011;18201;50.978;7.034;2023-04-15T02:49:38;10.80;;;8.00;;
31596;SDS011;18201;50.978;7.034;2023-04-15T02:50:09;10.70;;;8.07;;
31596;SDS011;18201;50.978;7.034;2023-04-15T02:50:42;9.77;;;7.97;;
31596;SDS011;18201;50.978;7.034;2023-04-15T02:51:14;12.23;;;8.10;;
31596;SDS011;18201;50.978;7.034;2023-04-15T02:51:49;10.93;;;7.03;;
31596;SDS011;18201;50.978;7.034;2023-04-15T02:52:20;15.40;;;7.72;;
31596;SDS011;18201;50.978;7.034;2023-04-15T02:52:53;10.00;;;7.75;;
31596;SDS011;18201;50.978;7.034;2023-04-15T02:53:24;11.75;;;7.70;;
31596;SDS011;18201;50.978;7.034;2023-04-15T02:53:55;13.38;;;7.22;;
31596;SDS011;18201;50.978;7.034;2023-04-15T02:54:28;14.35;;;8.10;;
31596;SDS011;18201;50.978;7.034;2023-04-15T02:54:59;13.02;;;7.90;;
31596;SDS011;18201;50.978;7.034;2023-04-15T02:55:31;11.35;;;7.82;;
31596;SDS011;18201;50.978;7.034;2023-04-15T02:56:03;11.82;;;7.53;;
31596;SDS011;18201;50.978;7.034;2023-04-15T02:56:35;12.90;;;8.23;;
31596;SDS011;18201;50.978;7.034;2023-04-15T02:57:06;10.90;;;7.43;;
31596;SDS011;18201;50.978;7.034;2023-04-15T02:57:37;9.85;;;7.70;;
31596;SDS011;18201;50.978;7.034;2023-04-15T02:58:11;9.98;;;7.18;;
31596;SDS011;18201;50.978;7.034;2023-04-15T02:58:42;10.70;;;6.97;;
31596;SDS011;18201;50.978;7.034;2023-04-15T02:59:15;9.65;;;7.75;;
31596;SDS011;18201;50.978;7.034;2023-04-15T02:59:46;8.48;;;6.40;;
31596;SDS011;18201;50.978;7.034;2023-04-15T03:00:16;8.15;;;6.72;;
31596;SDS011;18201;50.978;7.034;2023-04-15T03:00:47;9.35;;;7.38;;
31596;SDS011;18201;50.978;7.034;2023-04-15T03:01:23;9.50;;;7.30;;
31596;SDS011;18201;50.978;7.034;2023-04-15T03:01:55;14.30;;;7.07;;
31596;SDS011;18201;50.978;7.034;2023-04-15T03:02:32;12.00;;;7.35;;
31596;SDS011;18201;50.978;7.034;2023-04-15T03:03:05;11.68;;;7.07;;
31596;SDS011;18201;50.978;7.034;2023-04-15T03:03:35;13.30;;;7.07;;
31596;SDS011;18201;50.978;7.034;2023-04-15T03:04:06;9.27;;;7.15;;
31596;SDS011;18201;50.978;7.034;2023-04-15T03:04:39;14.65;;;6.53;;
31596;SDS011;18201;50.978;7.034;2023-04-15T03:05:10;9.38;;;7.13;;
31596;SDS011;18201;50.978;7.034;2023-04-15T03:05:43;12.88;;;7.13;;
31596;SDS011;18201;50.978;7.034;2023-04-15T03:06:14;10.50;;;7.28;;
31596;SDS011;18201;50.978;7.034;2023-04-15T03:06:45;9.85;;;7.43;;
31596;SDS011;18201;50.978;7.034;2023-04-15T03:07:16;9.90;;;6.82;;
31596;SDS011;18201;50.978;7.034;2023-04-15T03:07:48;11.20;;;6.93;;
31596;SDS011;18201;50.978;7.034;2023-04-15T03:08:19;10.57;;;7.35;;
31596;SDS011;18201;50.978;7.034;2023-04-15T03:08:50;10.85;;;6.50;;
31596;SDS011;18201;50.978;7.034;2023-04-15T03:09:22;10.23;;;7.47;;
31596;SDS011;18201;50.978;7.034;2023-04-15T03:09:53;11.75;;;6.97;;